createdAt,value
2018-09-14T00:00:54.859Z,22.77
2018-09-14T00:03:24.931Z,25.25
2018-09-14T00:05:55.102Z,32.00
2018-09-14T00:08:25.214Z,30.52
2018-09-14T00:10:55.314Z,29.57
2018-09-14T00:13:25.487Z,34.45
2018-09-14T00:15:55.547Z,32.75
2018-09-14T00:18:25.547Z,33.45
2018-09-14T00:20:55.724Z,32.90
2018-09-14T00:23:25.786Z,33.15
2018-09-14T00:25:55.955Z,35.63
2018-09-14T00:28:25.959Z,30.70
2018-09-14T00:30:56.340Z,33.30
2018-09-14T00:33:26.155Z,32.70
2018-09-14T00:35:56.346Z,38.00
2018-09-14T00:38:26.435Z,33.40
2018-09-14T00:40:56.514Z,33.10
2018-09-14T00:43:26.652Z,32.98
2018-09-14T00:45:56.775Z,36.08
2018-09-14T00:48:26.807Z,34.35
2018-09-14T00:50:56.947Z,32.00
2018-09-14T00:53:26.934Z,38.13
2018-09-14T00:55:57.150Z,34.35
2018-09-14T00:58:27.249Z,35.78
2018-09-14T01:00:57.516Z,38.58
2018-09-14T01:03:27.384Z,39.33
2018-09-14T01:05:57.562Z,38.70
2018-09-14T01:08:27.615Z,35.33
2018-09-14T01:10:57.751Z,37.58
2018-09-14T01:13:27.766Z,40.83
2018-09-14T01:15:58.039Z,43.00
2018-09-14T01:18:27.986Z,44.83
2018-09-14T01:20:58.190Z,41.40
2018-09-14T01:23:28.167Z,43.87
2018-09-14T01:25:58.293Z,47.35
2018-09-14T01:28:28.467Z,45.43
2018-09-14T01:30:58.607Z,44.05
2018-09-14T01:33:28.676Z,40.65
2018-09-14T01:36:03.926Z,46.40
2018-09-14T01:38:33.100Z,48.15
2018-09-14T01:41:02.242Z,47.97
2018-09-14T01:43:31.383Z,44.87
2018-09-14T01:46:00.549Z,42.93
2018-09-14T01:48:29.699Z,45.67
2018-09-14T01:50:59.396Z,51.50
2018-09-14T01:53:29.575Z,45.40
2018-09-14T01:55:59.607Z,52.17
2018-09-14T01:58:29.690Z,48.33
2018-09-14T02:00:59.852Z,52.93
2018-09-14T02:03:29.986Z,55.65
2018-09-14T02:05:59.999Z,52.17
2018-09-14T02:08:30.097Z,57.03
2018-09-14T02:11:00.147Z,51.60
2018-09-14T02:13:30.404Z,55.73
2018-09-14T02:16:00.451Z,52.60
2018-09-14T02:18:30.577Z,53.63
2018-09-14T02:21:00.471Z,54.13
2018-09-14T02:23:30.538Z,52.83
2018-09-14T02:26:00.682Z,53.02
2018-09-14T02:28:30.760Z,56.98
2018-09-14T02:31:00.735Z,56.68
2018-09-14T02:33:30.879Z,51.73
2018-09-14T02:36:00.948Z,54.65
2018-09-14T02:38:30.943Z,59.25
2018-09-14T02:41:00.979Z,53.25
2018-09-14T02:43:31.056Z,56.42
2018-09-14T02:46:01.119Z,56.37
2018-09-14T02:48:31.231Z,54.77
2018-09-14T02:51:01.282Z,52.55
2018-09-14T02:53:31.332Z,52.95
2018-09-14T02:56:01.471Z,54.75
2018-09-14T02:58:31.448Z,51.75
2018-09-14T03:01:01.517Z,55.33
2018-09-14T03:03:31.616Z,55.08
2018-09-14T03:06:01.667Z,53.90
2018-09-14T03:08:31.735Z,54.58
2018-09-14T03:11:01.865Z,50.90
2018-09-14T03:13:31.871Z,50.20
2018-09-14T03:16:01.987Z,49.33
2018-09-14T03:18:32.008Z,50.33
2018-09-14T03:21:02.164Z,54.33
2018-09-14T03:23:32.128Z,51.18
2018-09-14T03:26:02.199Z,48.45
2018-09-14T03:28:32.281Z,52.00
2018-09-14T03:31:02.500Z,57.40
2018-09-14T03:33:32.420Z,54.88
2018-09-14T03:36:02.518Z,55.30
2018-09-14T03:38:32.672Z,59.75
2018-09-14T03:41:02.654Z,58.83
2018-09-14T03:43:32.851Z,59.70
2018-09-14T03:46:02.796Z,55.70
2018-09-14T03:48:32.927Z,60.28
2018-09-14T03:51:03.032Z,58.87
2018-09-14T03:53:33.091Z,57.83
2018-09-14T03:56:03.224Z,60.52
2018-09-14T03:58:33.198Z,65.22
2018-09-14T04:01:03.367Z,63.70
2018-09-14T04:03:33.353Z,58.25
2018-09-14T04:06:03.353Z,65.10
2018-09-14T04:08:33.551Z,69.35
2018-09-14T04:11:03.639Z,62.95
2018-09-14T04:13:33.648Z,67.67
2018-09-14T04:16:03.744Z,64.45
2018-09-14T04:18:33.764Z,57.90
2018-09-14T04:21:03.944Z,61.53
2018-09-14T04:23:33.977Z,62.35
2018-09-14T04:26:03.997Z,60.45
2018-09-14T04:28:34.028Z,58.40
2018-09-14T04:31:04.531Z,67.70
2018-09-14T04:33:34.239Z,55.00
2018-09-14T04:36:04.285Z,66.05
2018-09-14T04:38:34.274Z,64.80
2018-09-14T04:41:04.439Z,59.10
2018-09-14T04:43:34.448Z,59.15
2018-09-14T04:46:04.611Z,61.80
2018-09-14T04:48:34.650Z,63.95
2018-09-14T04:51:04.767Z,66.53
2018-09-14T04:53:34.675Z,59.40
2018-09-14T04:56:04.844Z,58.52
2018-09-14T04:58:34.855Z,63.30
2018-09-14T05:01:05.259Z,58.58
2018-09-14T05:03:35.340Z,70.47
2018-09-14T05:06:05.109Z,58.38
2018-09-14T05:08:35.077Z,61.18
2018-09-14T05:11:05.192Z,64.80
2018-09-14T05:13:35.188Z,55.40
2018-09-14T05:16:05.388Z,58.25
2018-09-14T05:18:36.155Z,62.38
2018-09-14T05:21:07.534Z,58.75
2018-09-14T05:23:36.759Z,63.67
2018-09-14T05:26:05.921Z,67.60
2018-09-14T05:28:35.654Z,62.20
2018-09-14T05:31:05.893Z,53.05
2018-09-14T05:33:35.871Z,60.50
2018-09-14T05:36:05.934Z,57.10
2018-09-14T05:38:35.936Z,58.45
2018-09-14T05:41:09.081Z,58.83
2018-09-14T05:43:39.189Z,59.73
2018-09-14T05:46:08.519Z,66.73
2018-09-14T05:48:37.675Z,64.50
2018-09-14T05:51:06.919Z,63.33
2018-09-14T05:53:36.349Z,62.70
2018-09-14T05:56:06.728Z,59.45
2018-09-14T05:58:36.588Z,62.80
2018-09-14T06:01:06.773Z,57.60
2018-09-14T06:03:37.391Z,63.30
2018-09-14T06:06:08.767Z,54.63
2018-09-14T06:08:38.035Z,55.87
2018-09-14T06:11:07.320Z,54.10
2018-09-14T06:13:36.967Z,60.40
2018-09-14T06:16:07.207Z,59.88
2018-09-14T06:18:37.148Z,52.93
2018-09-14T06:21:07.279Z,46.98
2018-09-14T06:23:37.288Z,54.50
2018-09-14T06:26:07.394Z,60.88
2018-09-14T06:28:37.567Z,59.20
2018-09-14T06:31:07.567Z,51.53
2018-09-14T06:33:37.703Z,56.95
2018-09-14T06:36:07.468Z,58.15
2018-09-14T06:38:37.820Z,51.70
2018-09-14T06:41:07.794Z,53.98
2018-09-14T06:43:37.924Z,58.00
2018-09-14T06:46:08.056Z,56.33
2018-09-14T06:48:38.052Z,52.25
2018-09-14T06:51:08.254Z,55.30
2018-09-14T06:53:38.204Z,57.53
2018-09-14T06:56:08.251Z,50.65
2018-09-14T06:58:38.443Z,57.98
2018-09-14T07:01:08.534Z,47.10
2018-09-14T07:03:38.588Z,53.23
2018-09-14T07:06:08.663Z,55.83
2018-09-14T07:08:38.781Z,52.95
2018-09-14T07:11:08.713Z,43.83
2018-09-14T07:13:38.809Z,44.67
2018-09-14T07:16:08.891Z,43.87
2018-09-14T07:18:39.049Z,49.95
2018-09-14T07:21:09.152Z,48.50
2018-09-14T07:23:39.086Z,44.38
2018-09-14T07:26:09.311Z,49.86
2018-09-14T07:28:39.388Z,48.65
2018-09-14T07:31:10.512Z,43.62
2018-09-14T07:33:39.674Z,43.43
2018-09-14T07:36:26.453Z,47.73
2018-09-14T07:39:43.672Z,46.57
2018-09-14T07:42:25.423Z,41.73
2018-09-14T07:45:01.713Z,41.30
2018-09-14T07:47:30.923Z,37.00
2018-09-14T07:50:00.087Z,43.03
2018-09-14T07:52:29.447Z,43.73
2018-09-14T07:54:58.635Z,42.97
2018-09-14T07:57:27.853Z,45.43
2018-09-14T07:59:57.017Z,45.10
2018-09-14T08:02:26.184Z,43.07
2018-09-14T08:04:55.443Z,46.70
2018-09-14T08:07:24.600Z,37.13
2018-09-14T08:09:53.755Z,41.92
2018-09-14T08:12:22.915Z,36.20
2018-09-14T08:14:52.084Z,36.70
2018-09-14T08:17:21.336Z,37.27
2018-09-14T08:19:50.504Z,36.20
2018-09-14T08:22:19.676Z,38.60
2018-09-14T08:24:48.843Z,37.67
2018-09-14T08:27:18.725Z,42.20
2018-09-14T08:29:47.923Z,32.13
2018-09-14T08:32:17.153Z,35.03
2018-09-14T08:34:47.535Z,35.83
2018-09-14T08:37:16.786Z,41.17
2018-09-14T08:39:45.932Z,38.75
2018-09-14T08:42:15.082Z,37.70
2018-09-14T08:44:44.227Z,40.23
2018-09-14T08:47:13.635Z,37.00
2018-09-14T08:49:42.843Z,37.07
2018-09-14T08:52:12.128Z,36.53
2018-09-14T08:54:42.267Z,36.65
2018-09-14T08:57:12.379Z,32.03
2018-09-14T08:59:42.316Z,40.65
2018-09-14T09:02:12.940Z,35.73
2018-09-14T09:04:42.976Z,34.67
2018-09-14T09:07:13.019Z,33.67
2018-09-14T09:09:43.111Z,33.48
2018-09-14T09:12:13.186Z,33.30
2018-09-14T09:14:43.381Z,32.90
2018-09-14T09:17:13.247Z,33.30
2018-09-14T09:19:43.414Z,35.32
2018-09-14T09:22:12.575Z,33.47
2018-09-14T09:24:41.776Z,39.40
2018-09-14T09:27:10.943Z,38.20
2018-09-14T09:29:40.204Z,34.33
2018-09-14T09:32:09.352Z,36.90
2018-09-14T09:34:38.608Z,46.48
2018-09-14T09:37:07.806Z,43.70
2018-09-14T09:39:37.975Z,42.97
2018-09-14T09:42:07.162Z,40.93
2018-09-14T09:44:36.504Z,39.17
2018-09-14T09:47:05.692Z,44.53
2018-09-14T09:49:34.867Z,50.73
2018-09-14T09:52:04.118Z,46.33
2018-09-14T09:54:33.362Z,43.83
2018-09-14T09:57:02.591Z,43.37
2018-09-14T09:59:31.756Z,46.53
2018-09-14T10:02:06.160Z,46.93
2018-09-14T10:04:45.364Z,46.47
2018-09-14T10:07:14.531Z,43.83
2018-09-14T10:09:43.689Z,40.03
2018-09-14T10:12:12.907Z,46.13
2018-09-14T10:14:42.042Z,44.50
2018-09-14T10:17:11.302Z,46.73
2018-09-14T10:19:40.490Z,45.40
2018-09-14T10:22:09.730Z,40.37
2018-09-14T10:24:39.001Z,46.20
2018-09-14T10:27:08.203Z,44.83
2018-09-14T10:29:37.366Z,42.23
2018-09-14T10:32:06.660Z,42.77
2018-09-14T10:34:35.811Z,40.95
2018-09-14T10:37:05.065Z,42.33
2018-09-14T10:39:34.229Z,41.47
2018-09-14T10:42:05.220Z,40.50
2018-09-14T10:44:34.371Z,39.67
2018-09-14T10:47:03.515Z,34.60
2018-09-14T10:49:32.683Z,33.55
2018-09-14T10:52:01.989Z,36.93
2018-09-14T10:54:31.144Z,34.63
2018-09-14T10:57:00.303Z,36.27
2018-09-14T10:59:29.464Z,37.27
2018-09-14T11:01:58.610Z,37.60
2018-09-14T11:04:27.780Z,33.57
2018-09-14T11:06:57.235Z,42.67
2018-09-14T11:09:26.418Z,37.93
2018-09-14T11:11:55.567Z,37.78
2018-09-14T11:14:24.712Z,37.80
2018-09-14T11:16:53.902Z,39.73
2018-09-14T11:19:23.083Z,38.27
2018-09-14T11:21:52.223Z,38.13
2018-09-14T11:24:21.871Z,40.70
2018-09-14T11:26:51.746Z,39.18
2018-09-14T11:29:21.859Z,34.57
2018-09-14T11:31:51.955Z,36.70
2018-09-14T11:34:22.019Z,36.98
2018-09-14T11:36:52.136Z,33.90
2018-09-14T11:39:22.260Z,33.30
2018-09-14T11:41:57.149Z,30.88
2018-09-14T11:44:29.592Z,34.03
2018-09-14T11:46:58.855Z,35.45
2018-09-14T11:49:28.200Z,36.67
2018-09-14T11:51:57.406Z,31.75
2018-09-14T11:54:26.681Z,32.23
2018-09-14T11:56:55.830Z,33.47
2018-09-14T11:59:25.175Z,32.53
2018-09-14T12:01:54.716Z,35.63
2018-09-14T12:04:23.984Z,31.53
2018-09-14T12:06:53.267Z,27.67
2018-09-14T12:09:23.446Z,30.92
2018-09-14T12:11:53.524Z,37.05
2018-09-14T12:14:23.569Z,27.10
2018-09-14T12:16:53.783Z,28.38
2018-09-14T12:19:23.815Z,29.40
2018-09-14T12:21:53.887Z,32.13
2018-09-14T12:24:24.008Z,27.60
2018-09-14T12:26:54.175Z,25.72
2018-09-14T12:29:24.312Z,25.37
2018-09-14T12:31:54.315Z,28.67
2018-09-14T12:34:25.161Z,28.23
2018-09-14T12:36:54.564Z,28.90
2018-09-14T12:39:24.588Z,30.50
2018-09-14T12:41:54.682Z,32.55
2018-09-14T12:44:24.814Z,32.10
2018-09-14T12:46:54.940Z,33.73
2018-09-14T12:49:25.059Z,33.50
2018-09-14T12:51:55.159Z,28.12
2018-09-14T12:54:25.299Z,33.78
2018-09-14T12:56:55.410Z,34.85
2018-09-14T12:59:25.463Z,30.70
2018-09-14T13:01:55.531Z,27.07
2018-09-14T13:04:25.814Z,29.60
2018-09-14T13:06:55.740Z,32.05
2018-09-14T13:09:25.899Z,32.30
2018-09-14T13:11:55.958Z,28.70
2018-09-14T13:14:26.149Z,30.25
2018-09-14T13:16:59.778Z,29.82
2018-09-14T13:19:30.132Z,29.33
2018-09-14T13:21:59.350Z,31.37
2018-09-14T13:24:28.514Z,28.37
2018-09-14T13:26:57.688Z,28.80
2018-09-14T13:29:26.881Z,29.07
2018-09-14T13:31:57.593Z,27.52
2018-09-14T13:34:29.235Z,28.33
2018-09-14T13:37:00.435Z,32.07
2018-09-14T13:39:29.586Z,27.67
2018-09-14T13:41:58.804Z,30.20
2018-09-14T13:44:28.016Z,30.83
2018-09-14T13:46:57.474Z,29.63
2018-09-14T13:49:27.568Z,28.95
2018-09-14T13:51:57.735Z,28.75
2018-09-14T13:54:27.873Z,29.90
2018-09-14T13:56:57.881Z,28.65
2018-09-14T13:59:27.938Z,29.85
2018-09-14T14:01:58.217Z,25.68
2018-09-14T14:04:28.217Z,27.87
2018-09-14T14:06:58.369Z,23.47
2018-09-14T14:09:28.411Z,24.57
2018-09-14T14:11:58.543Z,25.70
2018-09-14T14:14:28.865Z,24.63
2018-09-14T14:16:58.950Z,24.45
2018-09-14T14:19:28.943Z,24.70
2018-09-14T14:21:58.915Z,26.17
2018-09-14T14:24:29.035Z,19.05
2018-09-14T14:26:59.163Z,24.15
2018-09-14T14:29:29.330Z,23.12
2018-09-14T14:31:59.415Z,27.13
2018-09-14T14:34:29.560Z,23.32
2018-09-14T14:36:59.699Z,22.85
2018-09-14T14:39:29.679Z,24.63
2018-09-14T14:41:59.790Z,21.35
2018-09-14T14:44:29.938Z,21.17
2018-09-14T14:47:00.081Z,22.77
2018-09-14T14:49:30.086Z,20.97
2018-09-14T14:52:00.123Z,24.70
2018-09-14T14:54:30.312Z,24.60
2018-09-14T14:57:00.391Z,24.00
2018-09-14T14:59:30.498Z,21.97
2018-09-14T15:02:00.466Z,22.32
2018-09-14T15:04:30.540Z,24.10
2018-09-14T15:07:00.704Z,21.75
2018-09-14T15:09:30.716Z,22.42
2018-09-14T15:12:00.781Z,20.70
2018-09-14T15:14:31.010Z,19.60
2018-09-14T15:17:01.083Z,21.37
2018-09-14T15:19:31.034Z,21.02
2018-09-14T15:22:01.063Z,22.98
2018-09-14T15:24:31.137Z,19.85
2018-09-14T15:27:01.205Z,22.22
2018-09-14T15:29:31.267Z,18.32
2018-09-14T15:32:01.250Z,20.95
2018-09-14T15:34:31.443Z,20.15
2018-09-14T15:37:01.533Z,20.62
2018-09-14T15:39:31.482Z,22.55
2018-09-14T15:42:01.707Z,22.60
2018-09-14T15:44:31.662Z,19.02
2018-09-14T15:47:01.743Z,21.97
2018-09-14T15:49:31.760Z,20.40
2018-09-14T15:52:01.809Z,19.87
2018-09-14T15:54:32.015Z,24.00
2018-09-14T15:57:02.079Z,19.25
2018-09-14T15:59:31.995Z,24.50
2018-09-14T16:07:06.406Z,19.23
2018-09-14T16:09:35.552Z,21.70
2018-09-14T16:12:05.450Z,22.53
2018-09-14T16:14:34.621Z,19.13
2018-09-14T16:17:03.763Z,20.73
2018-09-14T16:19:32.894Z,21.53
2018-09-14T16:22:02.720Z,21.25
2018-09-14T16:24:32.761Z,19.00
2018-09-14T16:27:02.778Z,20.82
2018-09-14T16:29:32.895Z,22.17
2018-09-14T16:32:02.957Z,17.37
2018-09-14T16:34:33.065Z,17.48
2018-09-14T16:37:03.233Z,21.10
2018-09-14T16:39:33.160Z,22.30
2018-09-14T16:42:03.329Z,20.60
2018-09-14T16:44:33.633Z,24.23
2018-09-14T16:47:03.376Z,23.45
2018-09-14T16:49:33.568Z,23.97
2018-09-14T16:52:03.487Z,21.97
2018-09-14T16:54:33.476Z,20.20
2018-09-14T16:57:03.579Z,21.27
2018-09-14T16:59:33.690Z,22.77
2018-09-14T17:02:03.944Z,19.37
2018-09-14T17:04:33.884Z,20.43
2018-09-14T17:07:03.835Z,18.95
2018-09-14T17:09:33.920Z,22.97
2018-09-14T17:12:04.057Z,19.50
2018-09-14T17:15:18.707Z,18.00
2018-09-14T17:17:54.511Z,22.97
2018-09-14T17:20:36.271Z,18.50
2018-09-14T17:25:55.663Z,17.13
2018-09-14T17:28:24.818Z,17.80
2018-09-14T17:30:54.027Z,14.73
2018-09-14T17:33:23.191Z,15.07
2018-09-14T17:35:52.431Z,12.60
2018-09-14T17:38:21.663Z,14.70
2018-09-14T17:40:50.762Z,11.97
2018-09-14T17:43:19.922Z,12.15
2018-09-14T17:45:49.084Z,13.63
2018-09-14T17:48:18.260Z,12.57
2018-09-14T17:50:47.433Z,12.40
2018-09-14T17:53:16.652Z,14.07
2018-09-14T17:55:45.820Z,12.33
2018-09-14T17:58:14.980Z,12.45
2018-09-14T18:00:44.287Z,12.55
2018-09-14T18:03:13.555Z,11.97
2018-09-14T18:05:42.649Z,10.07
2018-09-14T18:08:11.824Z,10.17
2018-09-14T18:10:40.983Z,11.07
2018-09-14T18:13:10.221Z,11.38
2018-09-14T18:15:39.566Z,12.27
2018-09-14T18:18:08.775Z,12.70
2018-09-14T18:20:37.991Z,11.33
2018-09-14T18:23:07.143Z,10.33
2018-09-14T18:25:36.648Z,12.37
2018-09-14T18:28:06.490Z,11.80
2018-09-14T18:30:36.729Z,13.72
2018-09-14T18:33:06.495Z,8.83
2018-09-14T18:35:36.733Z,9.55
2018-09-14T18:38:07.086Z,11.50
2018-09-14T18:40:36.924Z,11.20
2018-09-14T18:43:06.928Z,13.50
2018-09-14T18:45:36.995Z,14.05
2018-09-14T18:48:06.927Z,11.80
2018-09-14T18:50:37.110Z,13.85
2018-09-14T18:53:07.167Z,11.18
2018-09-14T18:55:37.169Z,11.80
2018-09-14T18:58:07.168Z,11.05
2018-09-14T19:00:37.290Z,12.85
2018-09-14T19:03:07.714Z,9.73
2018-09-14T19:05:37.670Z,12.25
2018-09-14T19:08:07.767Z,11.88
2018-09-14T19:10:38.276Z,9.98
2018-09-14T19:13:07.676Z,11.10
2018-09-14T19:15:37.895Z,11.27
2018-09-14T19:18:07.798Z,12.98
2018-09-14T19:20:38.167Z,10.82
2018-09-14T19:23:08.048Z,11.83
2018-09-14T19:25:38.404Z,12.98
2018-09-14T19:28:08.187Z,12.25
2018-09-14T19:30:38.230Z,13.18
2018-09-14T19:33:08.431Z,10.70
2018-09-14T19:35:38.548Z,10.40
2018-09-14T19:38:08.540Z,12.35
2018-09-14T19:40:38.939Z,12.30
2018-09-14T19:43:08.643Z,11.60
2018-09-14T19:45:38.796Z,9.75
2018-09-14T19:48:08.843Z,13.20
2018-09-14T19:50:38.972Z,12.10
2018-09-14T19:53:08.996Z,11.63
2018-09-14T19:55:39.393Z,13.68
2018-09-14T19:58:09.107Z,13.72
2018-09-14T20:00:39.340Z,12.90
2018-09-14T20:03:09.358Z,10.00
2018-09-14T20:05:39.400Z,10.60
2018-09-14T20:08:09.448Z,10.60
2018-09-14T20:10:39.583Z,11.33
2018-09-14T20:13:09.568Z,10.13
2018-09-14T20:15:39.769Z,13.62
2018-09-14T20:18:10.038Z,12.50
2018-09-14T20:20:39.807Z,14.40
2018-09-14T20:23:09.971Z,11.57
2018-09-14T20:25:40.015Z,12.28
2018-09-14T20:28:09.984Z,13.28
2018-09-14T20:30:40.160Z,11.08
2018-09-14T20:33:10.237Z,9.75
2018-09-14T20:35:40.230Z,13.05
2018-09-14T20:38:10.483Z,11.20
2018-09-14T20:40:40.574Z,12.30
2018-09-14T20:43:15.261Z,12.07
2018-09-14T20:45:44.417Z,11.13
2018-09-14T20:48:13.610Z,12.17
2018-09-14T20:50:42.766Z,11.00
2018-09-14T20:53:12.006Z,9.33
2018-09-14T20:55:41.216Z,10.93
2018-09-14T20:58:11.078Z,10.32
2018-09-14T21:00:41.139Z,10.75
2018-09-14T21:03:11.183Z,10.88
2018-09-14T21:05:41.261Z,12.13
2018-09-14T21:08:11.348Z,14.35
2018-09-14T21:10:41.436Z,13.28
2018-09-14T21:13:11.646Z,10.80
2018-09-14T21:15:41.620Z,10.82
2018-09-14T21:18:11.711Z,10.78
2018-09-14T21:20:41.830Z,12.07
2018-09-14T21:23:11.981Z,12.13
2018-09-14T21:25:41.995Z,13.15
2018-09-14T21:28:12.101Z,10.55
2018-09-14T21:30:42.211Z,11.38
2018-09-14T21:33:12.247Z,10.50
2018-09-14T21:35:42.392Z,11.95
2018-09-14T21:38:12.471Z,11.85
2018-09-14T21:40:42.603Z,11.22
2018-09-14T21:43:12.607Z,12.47
2018-09-14T21:45:42.740Z,11.73
2018-09-14T21:48:12.786Z,11.55
2018-09-14T21:50:42.864Z,10.68
2018-09-14T21:53:13.035Z,11.83
2018-09-14T21:55:43.011Z,11.28
2018-09-14T21:58:13.186Z,10.23
2018-09-14T22:01:49.182Z,11.48
2018-09-14T22:04:18.325Z,8.56
2018-09-14T22:06:47.485Z,12.05
2018-09-14T22:09:16.649Z,10.53
2018-09-14T22:11:45.834Z,11.50
2018-09-14T22:14:14.989Z,13.40
2018-09-14T22:16:44.146Z,11.17
2018-09-14T22:19:13.870Z,11.97
2018-09-14T22:21:44.089Z,12.40
2018-09-14T22:24:14.011Z,12.18
2018-09-14T22:26:44.140Z,13.18
2018-09-14T22:29:14.268Z,11.83
2018-09-14T22:31:44.401Z,14.58
2018-09-14T22:34:14.412Z,13.15
2018-09-14T22:36:44.642Z,14.65
2018-09-14T22:39:14.610Z,11.70
2018-09-14T22:41:44.716Z,13.10
2018-09-14T22:44:14.887Z,13.53
2018-09-14T22:46:44.896Z,13.75
2018-09-14T22:49:15.004Z,13.60
2018-09-14T22:51:45.044Z,13.58
2018-09-14T22:54:15.132Z,15.03
2018-09-14T22:56:45.283Z,12.90
2018-09-14T22:59:15.369Z,13.03
2018-09-14T23:01:45.410Z,15.20
2018-09-14T23:04:15.510Z,13.18
2018-09-14T23:06:45.647Z,12.93
2018-09-14T23:09:15.774Z,12.82
2018-09-14T23:11:45.836Z,12.70
2018-09-14T23:14:15.978Z,12.66
2018-09-14T23:16:46.022Z,12.45
2018-09-14T23:19:16.123Z,15.00
2018-09-14T23:21:46.167Z,13.53
2018-09-14T23:24:16.273Z,13.22
2018-09-14T23:26:46.382Z,14.60
2018-09-14T23:29:16.459Z,12.47
2018-09-14T23:31:51.972Z,11.30
2018-09-14T23:34:21.098Z,12.63
2018-09-14T23:36:50.243Z,11.30
2018-09-14T23:39:19.374Z,11.47
2018-09-14T23:41:48.626Z,13.80
2018-09-14T23:44:17.767Z,15.47
2018-09-14T23:46:47.438Z,12.87
2018-09-14T23:49:17.260Z,12.00
2018-09-14T23:51:47.415Z,15.35
2018-09-14T23:54:17.435Z,11.05
2018-09-14T23:56:47.522Z,14.20
2018-09-14T23:59:17.783Z,14.95
